Terminal Aerodrome Forecast
Issued by NWS

Home | Current Version | Previous Version | Graphics & Text | Print | Product List | Glossary On
Versions: 1 2 3 4 5 6 7 8 9 10 11 12 13 14 15 16 17 18
000
FTUS43 KICT 062227 AAB
TAFRSL
TAF AMD
KRSL 062227Z 0622/0718 35015G25KT P6SM SCT015 OVC025
      TEMPO 0622/0623 OVC015
     FM070000 01014G22KT P6SM SCT040 BKN060 OVC120
     FM070900 07011KT P6SM SCT030 BKN120=

USA.gov is the U.S. government's official web portal to all federal, state and local government web resources and services.